createdAt,value
2022-09-23T00:00:24.810Z,100417.41
2022-09-23T00:03:31.824Z,100412.59
2022-09-23T00:06:34.313Z,100417.06
2022-09-23T00:09:37.158Z,100408.53
2022-09-23T00:12:39.667Z,100414.53
2022-09-23T00:15:42.440Z,100415.75
2022-09-23T00:18:45.580Z,100418.66
2022-09-23T00:21:48.501Z,100416.28
2022-09-23T00:24:51.057Z,100408.72
2022-09-23T00:27:54.132Z,100412.72
2022-09-23T00:30:56.671Z,100418.97
2022-09-23T00:34:01.106Z,100412.53
2022-09-23T00:37:03.767Z,100410.84
2022-09-23T00:40:08.821Z,100397.09
2022-09-23T00:43:15.186Z,100402.59
2022-09-23T00:46:40.042Z,100388.97
2022-09-23T00:49:43.197Z,100389.50
2022-09-23T00:52:46.108Z,100387.94
2022-09-23T00:55:52.526Z,100384.06
2022-09-23T00:58:55.351Z,100385.16
2022-09-23T01:01:59.139Z,100386.13
2022-09-23T01:05:04.028Z,100396.47
2022-09-23T01:08:07.763Z,100393.94
2022-09-23T01:11:26.058Z,100397.81
2022-09-23T01:14:41.195Z,100395.69
2022-09-23T01:17:53.263Z,100389.44
2022-09-23T01:21:16.715Z,100400.47
2022-09-23T01:24:38.304Z,100402.53
2022-09-23T01:27:41.316Z,100400.41
2022-09-23T01:31:07.078Z,100392.13
2022-09-23T01:34:24.295Z,100394.91
2022-09-23T01:37:37.274Z,100394.69
2022-09-23T01:41:17.423Z,100393.88
2022-09-23T01:44:27.555Z,100387.88
2022-09-23T01:47:35.616Z,100395.78
2022-09-23T01:50:56.354Z,100391.59
2022-09-23T01:54:25.598Z,100391.22
2022-09-23T01:57:32.405Z,100391.12
2022-09-23T02:00:40.863Z,100388.38
2022-09-23T02:03:48.492Z,100390.88
2022-09-23T02:07:02.141Z,100394.13
2022-09-23T02:10:36.039Z,100387.62
2022-09-23T02:13:50.321Z,100392.34
2022-09-23T02:16:56.154Z,100385.50
2022-09-23T02:20:02.317Z,100383.13
2022-09-23T02:23:19.718Z,100387.44
2022-09-23T02:26:35.194Z,100383.25
2022-09-23T02:29:44.129Z,100380.72
2022-09-23T02:33:04.198Z,100379.87
2022-09-23T02:36:12.856Z,100381.94
2022-09-23T02:39:17.515Z,100386.50
2022-09-23T02:42:23.508Z,100383.13
2022-09-23T02:45:26.019Z,100385.03
2022-09-23T02:48:41.299Z,100380.13
2022-09-23T02:51:44.020Z,100387.09
2022-09-23T02:54:46.844Z,100379.66
2022-09-23T02:57:49.432Z,100383.50
2022-09-23T03:01:18.762Z,100387.94
2022-09-23T03:04:40.162Z,100381.94
2022-09-23T03:08:15.313Z,100379.19
2022-09-23T03:11:18.155Z,100384.22
2022-09-23T03:14:40.083Z,100378.12
2022-09-23T03:17:51.961Z,100384.22
2022-09-23T03:20:59.169Z,100386.16
2022-09-23T03:24:05.059Z,100383.63
2022-09-23T03:27:13.914Z,100381.84
2022-09-23T03:30:18.194Z,100382.56
2022-09-23T03:33:26.750Z,100381.97
2022-09-23T03:36:51.599Z,100383.03
2022-09-23T03:40:00.166Z,100381.12
2022-09-23T03:43:04.496Z,100384.84
2022-09-23T03:46:08.247Z,100380.84
2022-09-23T03:49:15.833Z,100388.53
2022-09-23T03:52:20.836Z,100387.47
2022-09-23T03:55:23.387Z,100380.28
2022-09-23T03:58:26.137Z,100390.97
2022-09-23T04:01:29.774Z,100382.41
2022-09-23T04:04:34.189Z,100381.56
2022-09-23T04:07:39.598Z,100385.28
2022-09-23T04:10:42.480Z,100393.56
2022-09-23T04:13:44.983Z,100393.47
2022-09-23T04:16:48.697Z,100394.28
2022-09-23T04:19:51.224Z,100390.56
2022-09-23T04:22:53.984Z,100399.81
2022-09-23T04:25:56.497Z,100396.34
2022-09-23T04:28:59.761Z,100397.19
2022-09-23T04:32:02.519Z,100394.66
2022-09-23T04:35:06.790Z,100396.56
2022-09-23T04:38:12.658Z,100395.38
2022-09-23T04:41:16.768Z,100404.13
2022-09-23T04:44:20.280Z,100403.41
2022-09-23T04:47:23.253Z,100410.47
2022-09-23T04:50:26.431Z,100410.94
2022-09-23T04:53:29.377Z,100408.41
2022-09-23T04:56:32.793Z,100406.97
2022-09-23T04:59:35.636Z,100412.97
2022-09-23T05:02:45.522Z,100408.41
2022-09-23T05:05:48.345Z,100414.16
2022-09-23T05:08:52.840Z,100414.06
2022-09-23T05:11:55.559Z,100415.84
2022-09-23T05:14:58.061Z,100420.69
2022-09-23T05:18:02.522Z,100431.59
2022-09-23T05:21:05.200Z,100432.09
2022-09-23T05:24:08.805Z,100428.25
2022-09-23T05:27:11.403Z,100430.53
2022-09-23T05:30:14.794Z,100434.50
2022-09-23T05:33:17.289Z,100443.03
2022-09-23T05:36:21.630Z,100438.97
2022-09-23T05:39:24.159Z,100437.53
2022-09-23T05:42:28.169Z,100430.81
2022-09-23T05:45:32.139Z,100435.59
2022-09-23T05:48:35.951Z,100444.34
2022-09-23T05:51:38.492Z,100441.25
2022-09-23T05:54:41.316Z,100441.50
2022-09-23T05:57:43.864Z,100444.25
2022-09-23T06:00:46.630Z,100446.00
2022-09-23T06:03:49.653Z,100438.81
2022-09-23T06:06:53.189Z,100444.31
2022-09-23T06:09:56.011Z,100440.41
2022-09-23T06:12:58.506Z,100438.13
2022-09-23T06:16:02.425Z,100439.88
2022-09-23T06:19:06.527Z,100445.56
2022-09-23T06:22:10.879Z,100436.78
2022-09-23T06:25:13.549Z,100447.88
2022-09-23T06:28:16.426Z,100454.09
2022-09-23T06:31:18.975Z,100451.69
2022-09-23T06:34:21.901Z,100447.91
2022-09-23T06:37:24.694Z,100456.00
2022-09-23T06:40:27.508Z,100458.03
2022-09-23T06:43:30.680Z,100460.00
2022-09-23T06:46:33.595Z,100453.66
2022-09-23T06:49:36.896Z,100451.44
2022-09-23T06:52:39.691Z,100458.28
2022-09-23T06:55:43.192Z,100462.34
2022-09-23T06:58:46.259Z,100464.75
2022-09-23T07:01:50.661Z,100472.31
2022-09-23T07:04:57.092Z,100467.16
2022-09-23T07:07:59.660Z,100472.19
2022-09-23T07:11:05.470Z,100472.59
2022-09-23T07:14:07.945Z,100473.16
2022-09-23T07:17:12.513Z,100468.53
2022-09-23T07:20:17.506Z,100476.03
2022-09-23T07:23:20.622Z,100469.88
2022-09-23T07:26:23.107Z,100480.63
2022-09-23T07:29:26.032Z,100481.22
2022-09-23T07:32:33.754Z,100486.47
2022-09-23T07:35:42.503Z,100473.66
2022-09-23T07:38:46.103Z,100481.00
2022-09-23T07:41:49.334Z,100470.22
2022-09-23T07:44:52.496Z,100471.34
2022-09-23T07:47:55.570Z,100469.41
2022-09-23T07:50:59.438Z,100470.41
2022-09-23T07:54:02.359Z,100465.34
2022-09-23T07:57:05.010Z,100467.69
2022-09-23T08:00:09.227Z,100474.63
2022-09-23T08:03:15.065Z,100460.56
2022-09-23T08:06:17.859Z,100464.78
2022-09-23T08:09:22.787Z,100460.25
2022-09-23T08:12:25.574Z,100464.47
2022-09-23T08:15:28.350Z,100464.69
2022-09-23T08:18:31.349Z,100466.03
2022-09-23T08:21:34.298Z,100461.75
2022-09-23T08:24:37.064Z,100461.75
2022-09-23T08:27:40.042Z,100457.75
2022-09-23T08:30:44.775Z,100457.91
2022-09-23T08:33:47.474Z,100455.38
2022-09-23T08:36:52.315Z,100450.66
2022-09-23T08:39:54.810Z,100455.47
2022-09-23T08:42:57.637Z,100446.50
2022-09-23T08:46:04.876Z,100446.75
2022-09-23T08:49:12.415Z,100439.34
2022-09-23T08:52:24.543Z,100440.25
2022-09-23T08:55:34.587Z,100444.16
2022-09-23T08:58:43.969Z,100446.28
2022-09-23T09:01:52.735Z,100435.94
2022-09-23T09:04:59.162Z,100438.59
2022-09-23T09:08:03.744Z,100448.78
2022-09-23T09:11:06.875Z,100439.75
2022-09-23T09:14:30.710Z,100444.19
2022-09-23T09:17:49.129Z,100438.03
2022-09-23T09:21:09.277Z,100433.97
2022-09-23T09:24:23.197Z,100434.91
2022-09-23T09:27:26.041Z,100442.97
2022-09-23T09:30:28.533Z,100433.84
2022-09-23T09:34:03.045Z,100443.09
2022-09-23T09:37:11.536Z,100435.84
2022-09-23T09:40:17.153Z,100427.94
2022-09-23T09:43:26.286Z,100428.19
2022-09-23T09:46:34.175Z,100425.50
2022-09-23T09:49:49.818Z,100424.66
2022-09-23T09:52:58.179Z,100420.78
2022-09-23T09:56:05.044Z,100420.88
2022-09-23T09:59:11.427Z,100412.12
2022-09-23T10:02:21.441Z,100405.00
2022-09-23T10:05:32.978Z,100407.03
2022-09-23T10:08:36.937Z,100403.72
2022-09-23T10:11:40.672Z,100404.91
2022-09-23T10:14:43.166Z,100398.81
2022-09-23T10:17:50.046Z,100404.66
2022-09-23T10:20:52.666Z,100403.19
2022-09-23T10:23:58.204Z,100390.91
2022-09-23T10:27:09.571Z,100401.47
2022-09-23T10:30:15.322Z,100403.03
2022-09-23T10:33:27.907Z,100403.88
2022-09-23T10:36:32.620Z,100397.56
2022-09-23T10:39:53.590Z,100398.72
2022-09-23T10:43:46.312Z,100391.06
2022-09-23T10:47:24.065Z,100389.81
2022-09-23T10:50:33.154Z,100385.72
2022-09-23T10:54:01.500Z,100372.97
2022-09-23T10:57:34.170Z,100374.12
2022-09-23T11:01:25.670Z,100377.19
2022-09-23T11:04:51.588Z,100381.19
2022-09-23T11:08:28.708Z,100377.72
2022-09-23T11:11:50.047Z,100374.28
2022-09-23T11:14:59.379Z,100368.78
2022-09-23T11:18:17.044Z,100369.03
2022-09-23T11:21:28.303Z,100367.75
2022-09-23T11:24:36.672Z,100355.78
2022-09-23T11:27:49.799Z,100347.97
2022-09-23T11:31:10.000Z,100341.53
2022-09-23T11:34:27.970Z,100340.12
2022-09-23T11:37:36.219Z,100338.69
2022-09-23T11:40:43.898Z,100327.50
2022-09-23T11:43:53.354Z,100331.63
2022-09-23T11:47:09.178Z,100332.03
2022-09-23T11:50:20.985Z,100329.09
2022-09-23T11:53:34.015Z,100321.38
2022-09-23T11:56:45.609Z,100329.84
2022-09-23T11:59:58.848Z,100324.41
2022-09-23T12:03:17.985Z,100326.84
2022-09-23T12:06:23.997Z,100321.47
2022-09-23T12:09:57.274Z,100327.03
2022-09-23T12:13:05.499Z,100326.97
2022-09-23T12:16:40.414Z,100320.75
2022-09-23T12:19:52.363Z,100321.75
2022-09-23T12:23:26.124Z,100311.97
2022-09-23T12:26:29.847Z,100313.88
2022-09-23T12:29:33.373Z,100310.75
2022-09-23T12:32:36.248Z,100303.28
2022-09-23T12:35:42.050Z,100303.22
2022-09-23T12:38:53.734Z,100295.53
2022-09-23T12:42:19.749Z,100293.44
2022-09-23T12:45:32.717Z,100290.94
2022-09-23T12:48:59.946Z,100287.59
2022-09-23T12:52:30.919Z,100282.59
2022-09-23T12:55:33.406Z,100280.94
2022-09-23T12:58:42.351Z,100283.41
2022-09-23T13:01:45.088Z,100280.19
2022-09-23T13:05:42.418Z,100272.13
2022-09-23T13:08:46.017Z,100269.31
2022-09-23T13:11:49.027Z,100263.75
2022-09-23T13:14:54.100Z,100266.81
2022-09-23T13:18:18.765Z,100259.81
2022-09-23T13:21:51.367Z,100266.22
2022-09-23T13:24:54.648Z,100258.69
2022-09-23T13:28:00.722Z,100256.06
2022-09-23T13:31:11.051Z,100263.22
2022-09-23T13:34:15.982Z,100262.66
2022-09-23T13:37:24.891Z,100254.47
2022-09-23T13:40:28.893Z,100244.44
2022-09-23T13:43:38.949Z,100247.25
2022-09-23T13:46:53.538Z,100246.09
2022-09-23T13:49:56.643Z,100245.66
2022-09-23T13:53:07.134Z,100246.09
2022-09-23T13:56:14.707Z,100237.00
2022-09-23T13:59:23.978Z,100239.06
2022-09-23T14:02:28.568Z,100240.72
2022-09-23T14:05:34.815Z,100241.75
2022-09-23T14:08:40.230Z,100247.16
2022-09-23T14:11:43.684Z,100240.81
2022-09-23T14:14:46.509Z,100240.69
2022-09-23T14:18:14.226Z,100231.62
2022-09-23T14:21:35.102Z,100231.97
2022-09-23T14:24:38.496Z,100238.66
2022-09-23T14:27:42.237Z,100232.56
2022-09-23T14:30:48.032Z,100225.34
2022-09-23T14:33:50.587Z,100227.47
2022-09-23T14:37:12.113Z,100223.63
2022-09-23T14:40:21.072Z,100211.00
2022-09-23T14:43:28.042Z,100216.37
2022-09-23T14:46:34.210Z,100218.88
2022-09-23T14:49:36.976Z,100211.00
2022-09-23T14:52:49.252Z,100212.25
2022-09-23T14:55:54.252Z,100206.66
2022-09-23T14:58:59.277Z,100208.09
2022-09-23T15:02:24.276Z,100205.41
2022-09-23T15:05:44.594Z,100209.13
2022-09-23T15:08:48.729Z,100211.91
2022-09-23T15:11:53.102Z,100208.62
2022-09-23T15:14:56.759Z,100210.31
2022-09-23T15:18:18.829Z,100206.13
2022-09-23T15:21:23.247Z,100204.72
2022-09-23T15:24:42.604Z,100202.63
2022-09-23T15:28:11.142Z,100203.97
2022-09-23T15:31:15.908Z,100194.72
2022-09-23T15:34:21.736Z,100196.13
2022-09-23T15:37:24.367Z,100194.47
2022-09-23T15:40:34.893Z,100192.97
2022-09-23T15:43:39.942Z,100189.13
2022-09-23T15:46:47.130Z,100185.78
2022-09-23T15:49:49.712Z,100190.06
2022-09-23T15:52:52.444Z,100192.59
2022-09-23T15:55:55.109Z,100189.00
2022-09-23T15:58:58.106Z,100185.47
2022-09-23T16:02:05.787Z,100188.69
2022-09-23T16:05:26.619Z,100189.56
2022-09-23T16:08:30.115Z,100193.78
2022-09-23T16:11:32.965Z,100197.03
2022-09-23T16:14:35.498Z,100192.63
2022-09-23T16:17:38.283Z,100188.78
2022-09-23T16:20:43.087Z,100191.22
2022-09-23T16:23:47.751Z,100185.97
2022-09-23T16:26:50.486Z,100187.56
2022-09-23T16:29:53.654Z,100186.28
2022-09-23T16:32:56.595Z,100189.91
2022-09-23T16:36:02.706Z,100187.75
2022-09-23T16:39:07.746Z,100188.31
2022-09-23T16:42:10.936Z,100187.66
2022-09-23T16:45:16.930Z,100190.28
2022-09-23T16:48:19.900Z,100196.28
2022-09-23T16:51:26.229Z,100185.56
2022-09-23T16:54:28.999Z,100190.66
2022-09-23T16:57:31.480Z,100186.50
2022-09-23T17:00:53.100Z,100195.09
2022-09-23T17:03:55.821Z,100193.16
2022-09-23T17:06:59.180Z,100184.62
2022-09-23T17:10:01.663Z,100194.91
2022-09-23T17:13:04.737Z,100188.06
2022-09-23T17:16:07.336Z,100192.78
2022-09-23T17:19:11.853Z,100182.22
2022-09-23T17:22:14.449Z,100184.19
2022-09-23T17:25:17.329Z,100191.22
2022-09-23T17:28:20.131Z,100188.53
2022-09-23T17:31:24.688Z,100200.56
2022-09-23T17:34:28.906Z,100197.22
2022-09-23T17:37:32.522Z,100200.28
2022-09-23T17:40:38.647Z,100196.94
2022-09-23T17:43:41.977Z,100201.38
2022-09-23T17:46:44.485Z,100200.44
2022-09-23T17:49:49.875Z,100200.34
2022-09-23T17:52:52.365Z,100208.69
2022-09-23T17:55:59.271Z,100209.25
2022-09-23T17:59:02.254Z,100209.66
2022-09-23T18:02:05.092Z,100212.06
2022-09-23T18:05:08.475Z,100215.81
2022-09-23T18:08:10.953Z,100209.47
2022-09-23T18:11:21.317Z,100199.00
2022-09-23T18:14:24.068Z,100212.63
2022-09-23T18:17:26.911Z,100214.69
2022-09-23T18:20:29.671Z,100217.75
2022-09-23T18:23:32.418Z,100212.94
2022-09-23T18:26:35.065Z,100214.81
2022-09-23T18:29:37.987Z,100220.34
2022-09-23T18:32:40.447Z,100216.03
2022-09-23T18:35:43.180Z,100221.94
2022-09-23T18:38:46.183Z,100218.78
2022-09-23T18:41:49.646Z,100222.31
2022-09-23T18:44:56.289Z,100225.97
2022-09-23T18:48:17.531Z,100225.00
2022-09-23T18:51:21.922Z,100220.00
2022-09-23T18:54:27.611Z,100225.84
2022-09-23T18:57:30.143Z,100225.34
2022-09-23T19:00:34.077Z,100216.69
2022-09-23T19:03:37.012Z,100215.53
2022-09-23T19:06:40.276Z,100219.00
2022-09-23T19:09:42.747Z,100216.28
2022-09-23T19:12:46.600Z,100217.97
2022-09-23T19:15:49.171Z,100217.13
2022-09-23T19:18:52.617Z,100225.97
2022-09-23T19:21:55.130Z,100220.09
2022-09-23T19:24:59.004Z,100220.91
2022-09-23T19:28:02.491Z,100225.56
2022-09-23T19:31:13.984Z,100221.06
2022-09-23T19:34:18.459Z,100224.38
2022-09-23T19:37:23.518Z,100218.16
2022-09-23T19:40:26.185Z,100228.78
2022-09-23T19:43:29.645Z,100217.94
2022-09-23T19:46:34.869Z,100228.72
2022-09-23T19:49:37.792Z,100213.00
2022-09-23T19:52:42.900Z,100216.47
2022-09-23T19:55:45.865Z,100224.63
2022-09-23T19:58:55.320Z,100224.75
2022-09-23T20:01:58.269Z,100226.22
2022-09-23T20:05:01.274Z,100227.63
2022-09-23T20:08:05.175Z,100223.41
2022-09-23T20:11:11.592Z,100219.03
2022-09-23T20:14:14.196Z,100226.13
2022-09-23T20:17:21.742Z,100221.69
2022-09-23T20:20:24.223Z,100219.66
2022-09-23T20:23:28.448Z,100217.63
2022-09-23T20:26:49.713Z,100224.41
2022-09-23T20:29:52.814Z,100224.88
2022-09-23T20:32:55.646Z,100225.00
2022-09-23T20:36:00.925Z,100221.28
2022-09-23T20:39:07.824Z,100221.72
2022-09-23T20:42:10.616Z,100217.19
2022-09-23T20:45:13.327Z,100219.31
2022-09-23T20:48:16.150Z,100219.78
2022-09-23T20:51:18.666Z,100220.84
2022-09-23T20:54:22.124Z,100219.75
2022-09-23T20:57:24.707Z,100215.88
2022-09-23T21:00:27.550Z,100206.69
2022-09-23T21:03:31.797Z,100216.25
2022-09-23T21:06:35.789Z,100213.50
2022-09-23T21:09:45.965Z,100213.06
2022-09-23T21:12:52.982Z,100218.84
2022-09-23T21:15:55.571Z,100213.13
2022-09-23T21:18:58.777Z,100209.53
2022-09-23T21:22:01.276Z,100213.59
2022-09-23T21:25:26.825Z,100215.88
2022-09-23T21:28:30.995Z,100218.69
2022-09-23T21:31:36.100Z,100223.72
2022-09-23T21:34:38.723Z,100217.41
2022-09-23T21:37:41.526Z,100218.16
2022-09-23T21:40:56.314Z,100221.53
2022-09-23T21:44:00.355Z,100217.78
2022-09-23T21:47:02.988Z,100231.66
2022-09-23T21:50:06.478Z,100230.22
2022-09-23T21:53:09.002Z,100230.37
2022-09-23T21:56:19.616Z,100229.12
2022-09-23T21:59:23.742Z,100231.25
2022-09-23T22:02:27.474Z,100227.63
2022-09-23T22:05:30.273Z,100229.19
2022-09-23T22:08:36.990Z,100230.31
2022-09-23T22:11:58.959Z,100237.56
2022-09-23T22:15:01.533Z,100233.66
2022-09-23T22:18:05.952Z,100234.34
2022-09-23T22:21:08.432Z,100228.78
2022-09-23T22:24:12.538Z,100234.78
2022-09-23T22:27:18.142Z,100227.09
2022-09-23T22:30:39.820Z,100236.03
2022-09-23T22:33:42.262Z,100232.28
2022-09-23T22:36:45.293Z,100231.88
2022-09-23T22:39:48.149Z,100231.41
2022-09-23T22:42:50.916Z,100231.97
2022-09-23T22:45:53.397Z,100226.41
2022-09-23T22:48:56.203Z,100231.16
2022-09-23T22:51:59.452Z,100225.28
2022-09-23T22:55:03.598Z,100222.78
2022-09-23T22:58:27.574Z,100229.59
2022-09-23T23:01:32.778Z,100230.72
2022-09-23T23:04:37.217Z,100229.16
2022-09-23T23:07:40.568Z,100223.84
2022-09-23T23:10:43.771Z,100221.91
2022-09-23T23:13:46.577Z,100219.66
2022-09-23T23:16:49.615Z,100220.50
2022-09-23T23:19:52.413Z,100224.41
2022-09-23T23:22:54.948Z,100219.09
2022-09-23T23:25:57.677Z,100224.94
2022-09-23T23:29:01.747Z,100220.59
2022-09-23T23:32:05.225Z,100224.28
2022-09-23T23:35:08.784Z,100219.84
2022-09-23T23:38:12.522Z,100226.09
2022-09-23T23:41:17.251Z,100219.69
2022-09-23T23:44:20.101Z,100223.44
2022-09-23T23:47:23.374Z,100224.53
2022-09-23T23:50:26.518Z,100226.72
2022-09-23T23:53:31.003Z,100227.37
2022-09-23T23:56:33.787Z,100226.66
2022-09-23T23:59:36.331Z,100223.59
